Time;durP1;ratioP1;P1;durP2;ratioP2;P2;SDS_P1;SDS_P2;PMS_P1;PMS_P2;Temp;Humidity;BMP_temperature;BMP_pressure;BME280_temperature;BME280_humidity;BME280_pressure;Samples;Min_cycle;Max_cycle;Signal;HPM_P1;HPM_P2
2021/10/09 00:00:12;;;;;;;15.25;6.95;;;;;;;3.65;56.50;101426.01;1715499;83;21568;-71
2021/10/09 00:02:39;;;;;;;11.73;6.42;;;;;;;3.65;56.64;101426.01;1730887;83;21493;-72
2021/10/09 00:05:07;;;;;;;14.03;7.17;;;;;;;3.63;56.68;101430.22;1731050;82;21094;-72
2021/10/09 00:07:35;;;;;;;12.98;7.15;;;;;;;3.63;56.65;101431.56;1688156;84;21088;-72
2021/10/09 00:10:04;;;;;;;16.00;7.05;;;;;;;3.64;56.55;101421.63;1717026;83;21079;-72
2021/10/09 00:12:29;;;;;;;10.05;6.67;;;;;;;3.62;56.77;101425.00;1709296;82;21043;-72
2021/10/09 00:14:56;;;;;;;13.95;7.10;;;;;;;3.59;56.92;101424.88;1716685;83;21628;-71
2021/10/09 00:17:24;;;;;;;12.00;7.03;;;;;;;3.56;57.11;101416.33;1693615;83;21000;-71
2021/10/09 00:19:51;;;;;;;12.70;7.37;;;;;;;3.55;57.18;101424.91;1709505;83;21039;-71
2021/10/09 00:22:17;;;;;;;15.88;7.95;;;;;;;3.50;57.34;101422.80;1733787;82;21442;-71
2021/10/09 00:24:43;;;;;;;14.30;7.78;;;;;;;3.49;57.42;101425.16;1733330;81;21066;-71
2021/10/09 00:27:10;;;;;;;11.60;7.67;;;;;;;3.47;57.60;101423.68;1720788;82;20975;-72
2021/10/09 00:29:37;;;;;;;11.70;6.67;;;;;;;3.42;57.81;101417.49;1718347;83;21103;-72
2021/10/09 00:32:04;;;;;;;13.00;7.05;;;;;;;3.37;58.10;101420.39;1718192;83;21086;-72
2021/10/09 00:34:30;;;;;;;11.03;6.65;;;;;;;3.32;58.30;101414.75;1722485;82;21115;-71
2021/10/09 00:36:57;;;;;;;;;;;;;;;3.27;58.57;101413.94;1733305;82;21039;-71
2021/10/09 00:39:23;;;;;;;12.20;7.10;;;;;;;3.22;58.74;101410.14;1714641;83;20115;-71
2021/10/09 00:41:49;;;;;;;15.30;7.25;;;;;;;3.13;59.06;101413.91;1706941;82;21015;-71
2021/10/09 00:44:17;;;;;;;15.40;7.15;;;;;;;3.09;59.14;101410.75;1711002;83;21554;-71
2021/10/09 00:46:44;;;;;;;14.98;7.53;;;;;;;3.08;59.28;101404.23;1715747;82;21051;-71
2021/10/09 00:49:15;;;;;;;11.85;7.80;;;;;;;3.03;59.58;101404.77;1716194;83;21102;-71
2021/10/09 00:51:40;;;;;;;12.13;7.25;;;;;;;3.00;59.60;101397.06;1717634;83;21130;-71
2021/10/09 00:54:06;;;;;;;11.25;7.17;;;;;;;2.95;59.74;101402.98;1718188;83;21074;-71
2021/10/09 00:56:34;;;;;;;13.93;7.35;;;;;;;2.95;59.74;101407.52;1730667;82;21071;-71
2021/10/09 00:59:00;;;;;;;13.80;7.42;;;;;;;2.91;59.83;101407.05;1713279;82;22416;-71
2021/10/09 01:01:26;;;;;;;12.45;7.75;;;;;;;2.91;59.81;101403.52;1687834;85;21051;-72
2021/10/09 01:03:53;;;;;;;13.03;7.60;;;;;;;2.89;59.77;101409.59;1701696;84;21059;-71
2021/10/09 01:06:19;;;;;;;13.68;7.70;;;;;;;2.88;59.85;101402.54;1717547;82;21035;-71
2021/10/09 01:08:46;;;;;;;14.33;7.70;;;;;;;2.82;60.00;101399.23;1711396;82;21024;-72
2021/10/09 01:11:13;;;;;;;;;;;;;;;2.80;60.14;101399.94;1725696;83;21015;-72
2021/10/09 01:13:40;;;;;;;14.15;7.90;;;;;;;2.77;60.16;101395.73;1723100;83;20119;-71
2021/10/09 01:16:23;;;;;;;15.93;7.85;;;;;;;2.75;60.38;101401.82;1716765;83;21031;-72
2021/10/09 01:18:51;;;;;;;14.87;8.43;;;;;;;2.73;60.51;101397.11;1720271;82;21047;-72
2021/10/09 01:21:18;;;;;;;13.38;7.65;;;;;;;2.71;60.65;101395.63;1717002;83;21035;-72
2021/10/09 01:23:46;;;;;;;13.50;7.83;;;;;;;2.70;60.71;101399.33;1723424;82;21094;-72
2021/10/09 01:26:13;;;;;;;;;;;;;;;2.67;60.90;101395.16;1700798;83;21075;-72
2021/10/09 01:28:44;;;;;;;11.93;7.58;;;;;;;2.65;61.02;101390.98;1723309;82;20166;-72
2021/10/09 01:31:11;;;;;;;17.27;8.30;;;;;;;2.59;61.21;101388.48;1729755;82;21074;-72
2021/10/09 01:33:37;;;;;;;13.18;8.33;;;;;;;2.59;61.15;101394.40;1723501;83;21055;-72
2021/10/09 01:36:03;;;;;;;14.15;7.95;;;;;;;2.62;61.10;101396.72;1721156;82;21054;-72
2021/10/09 01:38:32;;;;;;;15.25;9.05;;;;;;;2.61;61.07;101390.51;1728230;81;21563;-71
2021/10/09 01:41:01;;;;;;;13.32;7.75;;;;;;;2.60;61.24;101394.70;1721989;82;21047;-72
2021/10/09 01:43:28;;;;;;;14.83;8.55;;;;;;;2.58;61.38;101392.72;1701544;83;21145;-71
2021/10/09 01:45:55;;;;;;;15.95;8.80;;;;;;;2.56;61.47;101388.84;1725933;82;21035;-72
2021/10/09 01:48:34;;;;;;;15.40;8.05;;;;;;;2.55;61.45;101388.52;1723481;83;21354;-72
2021/10/09 01:51:02;;;;;;;13.35;8.40;;;;;;;2.54;61.58;101386.86;1732423;82;21031;-71
2021/10/09 01:53:28;;;;;;;15.30;8.30;;;;;;;2.53;61.66;101389.72;1726326;82;21109;-72
2021/10/09 01:55:55;;;;;;;14.75;8.40;;;;;;;2.56;61.65;101386.66;1734429;82;21075;-72
2021/10/09 01:58:21;;;;;;;12.00;7.85;;;;;;;2.55;61.69;101382.33;1738521;81;21090;-72
2021/10/09 02:00:48;;;;;;;16.73;8.05;;;;;;;2.54;61.59;101381.48;1734198;82;21084;-72
2021/10/09 02:03:18;;;;;;;;;;;;;;;2.53;61.60;101386.53;1723467;83;20964;-72
2021/10/09 02:05:43;;;;;;;13.72;7.62;;;;;;;2.54;61.49;101385.52;1731530;82;20147;-72
2021/10/09 02:08:10;;;;;;;14.45;9.03;;;;;;;2.45;61.76;101382.04;1717561;83;21035;-71
2021/10/09 02:13:30;;;;;;;11.93;7.53;;;;;;;2.43;61.84;101381.40;1710360;82;21067;-72
2021/10/09 02:15:58;;;;;;;14.43;8.45;;;;;;;2.41;61.89;101380.72;1718700;82;21542;-75
2021/10/09 02:26:16;;;;;;;14.53;8.43;;;;;;;2.25;62.37;101384.88;1741084;82;21035;-72
2021/10/09 02:28:43;;;;;;;15.72;8.88;;;;;;;2.23;62.40;101379.36;1742945;81;21098;-72
2021/10/09 02:31:10;;;;;;;15.85;8.78;;;;;;;2.23;62.50;101381.52;1724061;82;21042;-72
2021/10/09 02:33:36;;;;;;;;;;;;;;;2.22;62.59;101379.86;1714854;82;21129;-72
2021/10/09 02:36:03;;;;;;;14.50;7.95;;;;;;;2.21;62.61;101381.38;1702600;83;20113;-72
2021/10/09 02:38:29;;;;;;;13.62;8.33;;;;;;;2.16;62.93;101379.74;1687943;85;21514;-72
2021/10/09 02:40:56;;;;;;;;;;;;;;;2.14;63.00;101379.06;1711005;82;21031;-72
2021/10/09 02:43:22;;;;;;;12.95;8.13;;;;;;;2.13;63.42;101380.91;1686078;84;20146;-73
2021/10/09 02:45:50;;;;;;;16.20;8.75;;;;;;;2.06;63.83;101383.97;1695315;83;21109;-72
2021/10/09 02:48:16;;;;;;;;;;;;;;;2.02;63.96;101382.65;1690427;84;21441;-72
2021/10/09 11:22:44;;;;;;;5.40;2.30;;;;;;;12.27;26.80;101336.48;1804404;79;22908;-72
2021/10/09 11:25:26;;;;;;;6.97;2.60;;;;;;;12.21;26.75;101340.19;1750839;81;21102;-72
2021/10/09 11:27:54;;;;;;;4.50;1.92;;;;;;;12.21;26.61;101334.20;1724030;82;21011;-73
2021/10/09 11:30:20;;;;;;;5.55;2.30;;;;;;;12.25;26.93;101340.00;1733332;82;21590;-72
2021/10/09 11:32:47;;;;;;;7.47;2.40;;;;;;;12.30;26.60;101338.18;1735223;81;21026;-72
2021/10/09 11:35:16;;;;;;;;;;;;;;;12.31;26.78;101336.28;1747648;82;21104;-72
2021/10/09 11:37:50;;;;;;;4.12;2.30;;;;;;;12.34;26.55;101336.62;1745221;82;20135;-72
2021/10/09 11:40:34;;;;;;;8.43;2.20;;;;;;;12.25;26.33;101322.25;1740382;81;21049;-71
2021/10/09 11:43:12;;;;;;;7.20;2.10;;;;;;;12.23;26.19;101327.95;1748420;82;20999;-72
2021/10/09 11:45:54;;;;;;;5.87;2.40;;;;;;;12.22;26.36;101328.20;1733838;81;21060;-72
2021/10/09 11:54:07;;;;;;;5.92;2.20;;;;;;;12.35;25.94;101321.91;1720839;82;21002;-72
2021/10/09 11:56:31;;;;;;;8.43;2.60;;;;;;;12.36;26.10;101321.37;1743923;82;21036;-72
2021/10/09 11:58:59;;;;;;;7.40;2.47;;;;;;;12.38;25.68;101315.12;1744323;82;21032;-72
2021/10/09 12:01:32;;;;;;;4.15;2.20;;;;;;;12.38;25.69;101321.41;1717140;82;21066;-72
2021/10/09 12:04:20;;;;;;;3.72;2.12;;;;;;;12.35;25.46;101315.08;1748605;82;21418;-73
2021/10/09 12:06:55;;;;;;;7.47;2.40;;;;;;;12.31;25.65;101307.61;1741908;80;21532;-72
2021/10/09 12:09:38;;;;;;;6.72;2.40;;;;;;;12.30;25.22;101306.78;1727672;83;21030;-73
2021/10/09 12:12:22;;;;;;;5.95;2.92;;;;;;;12.27;25.28;101306.44;1737493;82;21030;-72
2021/10/09 12:14:50;;;;;;;6.60;3.08;;;;;;;12.25;25.74;101310.80;1746993;81;21584;-73
2021/10/09 12:17:19;;;;;;;4.70;2.15;;;;;;;12.24;26.05;101304.20;1744870;81;21922;-72
2021/10/09 12:20:00;;;;;;;4.37;2.20;;;;;;;12.24;26.52;101296.84;1717196;82;21007;-72
2021/10/09 12:22:28;;;;;;;5.03;2.15;;;;;;;12.24;25.99;101300.94;1714449;82;21019;-72
2021/10/09 12:24:57;;;;;;;8.93;2.50;;;;;;;12.20;26.07;101303.86;1709689;82;21065;-72
2021/10/09 12:27:29;;;;;;;5.60;2.60;;;;;;;12.18;26.16;101306.03;1702258;83;21074;-72
2021/10/09 12:30:07;;;;;;;5.70;2.52;;;;;;;12.16;26.20;101303.22;1684019;81;21117;-72
2021/10/09 12:32:51;;;;;;;8.23;2.50;;;;;;;12.14;26.21;101305.39;1736239;82;21675;-71
2021/10/09 12:35:30;;;;;;;6.00;2.90;;;;;;;12.08;26.25;101298.18;1722356;81;21086;-72
2021/10/09 12:38:05;;;;;;;7.20;2.80;;;;;;;12.05;25.90;101302.20;1733864;81;21437;-72
2021/10/09 12:40:45;;;;;;;48.42;30.23;;;;;;;12.01;25.89;101290.11;1679440;81;21029;-72
2021/10/09 12:43:19;;;;;;;9.20;3.83;;;;;;;11.98;26.20;101287.87;1738049;82;21038;-72
2021/10/09 12:45:47;;;;;;;16.27;8.20;;;;;;;11.96;25.87;101291.39;1739409;81;21055;-70
2021/10/09 12:48:18;;;;;;;6.60;2.77;;;;;;;11.94;26.28;101283.44;1705003;82;20999;-71
2021/10/09 12:50:47;;;;;;;7.25;3.00;;;;;;;11.92;26.04;101288.33;1698070;84;21079;-72
2021/10/09 12:53:15;;;;;;;7.03;3.72;;;;;;;11.90;26.05;101287.72;1674387;82;20999;-71
2021/10/09 12:55:42;;;;;;;5.45;2.77;;;;;;;11.87;26.06;101281.92;1708023;82;21139;-71
2021/10/09 12:58:10;;;;;;;4.83;2.27;;;;;;;11.82;26.08;101281.84;1734603;82;20980;-71
2021/10/09 13:00:38;;;;;;;4.30;1.82;;;;;;;11.79;26.01;101283.16;1660683;82;21045;-73
2021/10/09 13:03:06;;;;;;;5.15;2.80;;;;;;;11.79;26.47;101283.16;1729186;82;21054;-72
2021/10/09 13:05:35;;;;;;;5.67;2.72;;;;;;;11.80;26.04;101277.14;1670253;82;21012;-72
2021/10/09 13:08:05;;;;;;;5.22;2.35;;;;;;;11.79;26.22;101274.14;1738039;82;21073;-71
2021/10/09 13:10:36;;;;;;;5.62;2.55;;;;;;;11.77;26.68;101281.72;1734800;82;21051;-72
2021/10/09 13:13:00;;;;;;;12.65;2.52;;;;;;;11.77;26.41;101277.63;1736201;81;21495;-74
2021/10/09 13:15:27;;;;;;;;;;;;;;;11.77;26.39;101288.01;1732931;82;21029;-72
2021/10/09 13:17:53;;;;;;;4.78;2.20;;;;;;;11.74;26.61;101278.12;1734143;82;20131;-70
2021/10/09 13:20:20;;;;;;;5.03;2.05;;;;;;;11.69;26.67;101279.37;1734628;82;21619;-70
2021/10/09 13:22:46;;;;;;;;;;;;;;;11.68;26.58;101277.17;1737120;82;21043;-71
2021/10/09 13:25:13;;;;;;;3.27;1.90;;;;;;;11.66;26.69;101271.11;1737925;81;20469;-70
2021/10/09 13:27:41;;;;;;;4.33;1.70;;;;;;;11.59;26.56;101275.88;1735884;82;21125;-71
2021/10/09 13:30:08;;;;;;;6.60;1.95;;;;;;;11.58;26.55;101272.88;1723409;82;21041;-71
2021/10/09 13:32:36;;;;;;;5.30;1.77;;;;;;;11.55;26.67;101269.23;1698347;82;21066;-69
2021/10/09 13:35:03;;;;;;;4.15;2.15;;;;;;;11.54;26.89;101265.41;1735467;82;21084;-71
2021/10/09 13:37:36;;;;;;;4.47;1.85;;;;;;;11.54;26.81;101270.33;1735380;82;21079;-70
2021/10/09 13:39:59;;;;;;;6.28;2.47;;;;;;;11.53;26.83;101265.10;1673268;82;21154;-71
2021/10/09 13:42:25;;;;;;;11.10;3.85;;;;;;;11.48;26.64;101268.02;1712648;82;21036;-72
2021/10/09 13:44:52;;;;;;;6.47;2.20;;;;;;;11.45;26.63;101263.58;1724537;82;21084;-73
2021/10/09 13:47:19;;;;;;;4.65;1.98;;;;;;;11.41;26.80;101263.22;1723247;82;21083;-71
2021/10/09 13:49:46;;;;;;;6.67;2.05;;;;;;;11.41;27.04;101256.41;1724894;82;20984;-71
2021/10/09 13:52:13;;;;;;;7.20;2.08;;;;;;;11.39;27.06;101260.45;1725145;82;21127;-72
2021/10/09 13:54:40;;;;;;;;;;;;;;;11.36;27.04;101259.05;1741164;81;20987;-71
2021/10/09 13:57:07;;;;;;;4.10;1.92;;;;;;;11.34;26.89;101264.42;1738351;82;20119;-71
2021/10/09 13:59:36;;;;;;;4.25;2.08;;;;;;;11.25;26.76;101261.25;1738673;82;21043;-73
2021/10/09 14:02:02;;;;;;;4.45;1.80;;;;;;;11.24;26.85;101260.95;1730815;81;21037;-73
2021/10/09 14:04:36;;;;;;;4.53;1.82;;;;;;;11.23;26.86;101262.01;1687238;81;20964;-73
2021/10/09 14:06:57;;;;;;;5.53;2.10;;;;;;;11.21;26.93;101254.62;1737292;82;21652;-71
2021/10/09 14:09:24;;;;;;;5.00;2.25;;;;;;;11.20;26.97;101258.93;1729085;82;21005;-71
2021/10/09 14:11:52;;;;;;;6.87;3.35;;;;;;;11.18;27.10;101258.35;1688605;83;21042;-73
2021/10/09 14:14:20;;;;;;;8.10;4.30;;;;;;;11.16;27.07;101258.58;1728762;83;21492;-73
2021/10/09 14:16:46;;;;;;;9.28;4.30;;;;;;;11.14;27.22;101249.83;1737825;81;21005;-72
2021/10/09 14:19:13;;;;;;;6.75;4.83;;;;;;;11.10;27.31;101251.37;1738566;82;20994;-72
2021/10/09 14:21:39;;;;;;;8.13;2.77;;;;;;;11.08;27.36;101254.05;1735742;81;21099;-72
2021/10/09 14:24:06;;;;;;;;;;;;;;;11.06;27.32;101257.52;1724293;82;21425;-73
2021/10/09 14:26:33;;;;;;;3.92;2.35;;;;;;;11.01;27.38;101254.17;1731877;82;20467;-72
2021/10/09 14:29:00;;;;;;;9.85;4.25;;;;;;;10.90;27.38;101257.72;1707631;82;21035;-72
2021/10/09 14:31:27;;;;;;;5.15;2.77;;;;;;;10.86;27.48;101256.53;1676934;85;21087;-71
2021/10/09 14:33:54;;;;;;;7.90;2.55;;;;;;;10.82;27.49;101256.18;1647397;85;21028;-72
2021/10/09 14:36:21;;;;;;;4.92;2.25;;;;;;;10.78;27.70;101259.08;1661719;85;21123;-71
2021/10/09 14:38:47;;;;;;;5.42;2.60;;;;;;;10.76;27.73;101254.94;1676139;84;21035;-72
2021/10/09 14:41:14;;;;;;;6.15;2.35;;;;;;;10.71;27.74;101249.36;1699570;83;21099;-72
2021/10/09 14:43:41;;;;;;;7.40;3.67;;;;;;;10.66;28.02;101256.89;1720622;83;21502;-73
2021/10/09 14:48:45;;;;;;;6.47;3.08;;;;;;;10.57;28.20;101255.56;1737632;82;21015;-74
2021/10/09 14:53:56;;;;;;;8.03;3.22;;;;;;;10.44;28.54;101259.88;1724645;83;21012;-71
2021/10/09 15:01:23;;;;;;;6.50;3.00;;;;;;;10.37;28.74;101265.43;1733918;82;21522;-72
2021/10/09 15:20:29;;;;;;;9.83;5.15;;;;;;;9.49;31.22;101259.70;1728401;82;21615;-74
2021/10/09 15:22:59;;;;;;;16.07;5.28;;;;;;;9.41;31.48;101260.55;1708910;83;21083;-73
2021/10/09 15:25:25;;;;;;;14.50;5.62;;;;;;;9.29;31.70;101262.36;1734989;81;21059;-73
2021/10/09 15:27:52;;;;;;;12.05;5.10;;;;;;;9.19;31.98;101263.41;1731458;82;21094;-71
2021/10/09 15:30:18;;;;;;;9.55;4.35;;;;;;;9.09;32.07;101261.75;1730321;82;21059;-71
2021/10/09 15:32:45;;;;;;;14.20;5.83;;;;;;;9.00;32.22;101264.75;1734779;83;21652;-75
2021/10/09 15:35:12;;;;;;;13.58;6.92;;;;;;;8.90;32.46;101262.25;1733047;81;21015;-72
2021/10/09 15:37:39;;;;;;;16.62;10.40;;;;;;;8.82;32.57;101269.34;1735280;82;21518;-72
2021/10/09 15:40:07;;;;;;;11.73;7.50;;;;;;;8.73;32.65;101265.23;1732062;81;21083;-69
2021/10/09 15:42:34;;;;;;;12.13;5.15;;;;;;;8.66;32.84;101268.53;1729298;83;21180;-70
2021/10/09 15:45:01;;;;;;;11.83;5.75;;;;;;;8.56;33.10;101267.69;1727147;82;21122;-71
2021/10/09 15:47:28;;;;;;;10.58;4.65;;;;;;;8.49;33.14;101263.67;1706202;83;21071;-70
2021/10/09 15:49:55;;;;;;;7.12;4.17;;;;;;;8.43;33.20;101267.25;1735009;83;21087;-73
2021/10/09 15:52:21;;;;;;;8.70;4.60;;;;;;;8.37;33.24;101273.56;1735783;82;21542;-70
2021/10/09 15:54:48;;;;;;;39.80;26.95;;;;;;;8.32;33.47;101276.12;1731920;81;21113;-72
2021/10/09 15:57:14;;;;;;;42.17;30.92;;;;;;;8.25;33.76;101271.23;1736199;83;21003;-73
2021/10/09 15:59:41;;;;;;;33.23;26.23;;;;;;;8.17;33.84;101276.92;1729126;81;21031;-72
2021/10/09 16:02:07;;;;;;;28.40;24.80;;;;;;;8.10;33.84;101276.12;1727755;83;21013;-72
2021/10/09 16:04:35;;;;;;;16.27;8.93;;;;;;;8.06;34.05;101280.84;1743587;81;21044;-70
2021/10/09 16:07:03;;;;;;;;;;;;;;;7.99;34.17;101279.53;1724063;82;21465;-71
2021/10/09 16:09:30;;;;;;;9.65;4.92;;;;;;;7.93;34.40;101281.25;1698773;81;20096;-71
2021/10/09 16:11:58;;;;;;;11.73;5.22;;;;;;;7.80;34.64;101278.58;1727267;81;21541;-71
2021/10/09 16:14:24;;;;;;;;;;;;;;;7.76;34.74;101284.13;1725119;83;21542;-72
2021/10/09 16:16:51;;;;;;;18.23;12.23;;;;;;;7.71;34.96;101281.77;1718731;83;20154;-71
2021/10/09 16:19:17;;;;;;;11.28;6.47;;;;;;;7.53;35.32;101285.17;1724954;83;21038;-70
2021/10/09 16:21:47;;;;;;;6.50;3.70;;;;;;;7.53;35.32;101285.17;1721572;83;21061;-73
2021/10/09 16:24:12;;;;;;;11.10;4.62;;;;;;;7.49;35.40;101287.48;1715420;83;21006;-72
2021/10/09 16:26:42;;;;;;;10.60;7.35;;;;;;;7.47;35.48;101287.39;1729419;81;21043;-73
2021/10/09 16:29:11;;;;;;;16.27;10.10;;;;;;;7.44;35.64;101287.28;1727540;83;20991;-71
2021/10/09 16:31:40;;;;;;;15.75;10.25;;;;;;;7.41;35.68;101288.23;1723929;82;21068;-71
2021/10/09 16:34:06;;;;;;;29.25;19.70;;;;;;;7.38;35.84;101288.14;1726989;82;21064;-70
2021/10/09 16:36:39;;;;;;;31.12;18.70;;;;;;;7.36;35.83;101285.34;1724771;82;21099;-70
2021/10/09 16:39:06;;;;;;;51.80;34.98;;;;;;;7.35;35.88;101287.73;1715406;83;21566;-71
2021/10/09 16:41:32;;;;;;;;;;;;;;;7.33;36.10;101286.58;1726064;81;21142;-70
2021/10/09 16:43:59;;;;;;;19.15;14.07;;;;;;;7.29;36.10;101285.37;1712503;83;20461;-71
2021/10/09 16:46:25;;;;;;;10.85;6.33;;;;;;;7.20;36.32;101286.62;1719116;81;21636;-72
2021/10/09 16:48:52;;;;;;;13.50;5.45;;;;;;;7.19;36.46;101289.02;1721200;83;21015;-73
2021/10/09 16:51:19;;;;;;;35.52;20.65;;;;;;;7.18;36.45;101288.73;1712656;82;21042;-72
2021/10/09 16:53:46;;;;;;;46.20;26.30;;;;;;;7.16;36.50;101289.96;1731093;82;20980;-71
2021/10/09 16:56:12;;;;;;;47.70;30.57;;;;;;;7.11;36.58;101291.97;1711116;82;22143;-73
2021/10/09 16:58:39;;;;;;;28.32;16.45;;;;;;;7.07;36.93;101292.08;1713596;83;21016;-77
2021/10/09 17:01:05;;;;;;;24.87;15.03;;;;;;;7.01;37.21;101291.58;1723060;81;21459;-73
2021/10/09 17:03:33;;;;;;;31.55;17.98;;;;;;;6.95;37.48;101290.53;1726985;82;21028;-73
2021/10/09 17:06:01;;;;;;;44.75;29.35;;;;;;;6.90;37.85;101290.34;1729948;81;21138;-75
2021/10/09 17:08:27;;;;;;;20.15;12.45;;;;;;;6.84;38.34;101294.38;1728962;82;21499;-73
2021/10/09 17:10:54;;;;;;;30.75;16.85;;;;;;;6.75;38.28;101294.30;1729879;81;21081;-72
2021/10/09 17:13:20;;;;;;;25.45;13.70;;;;;;;6.70;38.63;101294.92;1711776;83;21534;-73
2021/10/09 17:15:48;;;;;;;29.77;11.70;;;;;;;6.64;38.86;101294.41;1727013;81;21075;-77
2021/10/09 17:18:15;;;;;;;38.30;15.63;;;;;;;6.59;39.11;101294.73;1730375;82;21549;-79
2021/10/09 17:20:41;;;;;;;50.08;18.52;;;;;;;6.55;39.22;101299.73;1720987;83;21071;-77
2021/10/09 17:23:08;;;;;;;56.37;18.82;;;;;;;6.48;39.71;101310.52;1718304;82;21062;-79
2021/10/09 17:25:34;;;;;;;46.98;17.10;;;;;;;6.41;40.09;101302.11;1734706;81;21046;-78
2021/10/09 17:28:00;;;;;;;39.10;13.80;;;;;;;6.30;40.38;101304.91;1730298;81;21526;-77
2021/10/09 17:30:27;;;;;;;64.07;25.70;;;;;;;6.23;40.34;101306.77;1729768;81;21085;-77
2021/10/09 17:32:54;;;;;;;77.90;35.43;;;;;;;6.21;40.85;101306.64;1711402;83;21102;-75
2021/10/09 17:35:23;;;;;;;;;;;;;;;6.16;41.16;101309.14;1735016;81;21083;-76
2021/10/09 17:37:48;;;;;;;62.53;21.37;;;;;;;6.10;41.52;101308.07;1727166;81;20551;-75
2021/10/09 17:40:15;;;;;;;78.85;31.75;;;;;;;5.98;41.70;101310.56;1725495;81;21122;-76
2021/10/09 17:42:41;;;;;;;89.55;33.20;;;;;;;5.91;42.20;101309.70;1732587;82;21028;-74
2021/10/09 17:45:09;;;;;;;67.87;40.43;;;;;;;5.83;42.82;101304.95;1732380;83;21119;-75
2021/10/09 17:47:36;;;;;;;38.28;19.05;;;;;;;5.75;42.89;101301.07;1733358;82;21059;-78
2021/10/09 17:50:06;;;;;;;22.35;11.57;;;;;;;5.69;43.28;101314.05;1731254;83;21008;-74
2021/10/09 17:52:33;;;;;;;16.48;8.68;;;;;;;5.64;43.06;101309.75;1721173;82;21051;-75
2021/10/09 17:55:00;;;;;;;15.20;8.70;;;;;;;5.60;42.93;101307.16;1730993;81;21019;-78
2021/10/09 17:57:26;;;;;;;15.30;7.90;;;;;;;5.59;42.87;101310.89;1710339;83;21778;-77
2021/10/09 17:59:53;;;;;;;14.95;8.35;;;;;;;5.56;42.75;101307.25;1717839;83;21111;-79
2021/10/09 18:02:19;;;;;;;;;;;;;;;5.55;42.97;101304.22;1722018;83;21501;-74
2021/10/09 18:04:46;;;;;;;17.77;10.20;;;;;;;5.53;42.91;101310.35;1712347;83;20134;-69
2021/10/09 18:07:12;;;;;;;35.78;21.23;;;;;;;5.43;43.20;101303.95;1733654;82;21035;-74
2021/10/09 18:09:40;;;;;;;35.20;19.57;;;;;;;5.40;43.45;101300.30;1725939;82;20980;-73
2021/10/09 18:12:07;;;;;;;36.63;13.20;;;;;;;5.39;43.21;101304.03;1722610;81;21593;-77
2021/10/09 18:14:33;;;;;;;58.75;19.37;;;;;;;5.38;43.22;101306.44;1710388;82;21136;-77
2021/10/09 18:17:00;;;;;;;49.38;24.10;;;;;;;5.36;43.55;101303.92;1725627;83;21048;-79
2021/10/09 18:19:29;;;;;;;49.33;20.37;;;;;;;5.35;43.41;101310.34;1714228;83;21521;-72
2021/10/09 18:21:55;;;;;;;52.58;19.70;;;;;;;5.33;43.45;101308.37;1712928;83;21008;-75
2021/10/09 18:24:22;;;;;;;;;;;;;;;5.30;43.98;101310.12;1728218;82;21015;-74
2021/10/09 18:26:49;;;;;;;93.25;29.85;;;;;;;5.26;44.23;101310.20;1710899;83;20127;-75
2021/10/09 18:29:15;;;;;;;71.80;23.18;;;;;;;5.16;44.47;101307.55;1720764;83;21046;-75
2021/10/09 18:31:42;;;;;;;59.73;28.57;;;;;;;5.12;45.22;101311.67;1717602;82;21098;-76
2021/10/09 18:34:08;;;;;;;76.77;37.53;;;;;;;5.06;45.04;101311.95;1708839;82;20999;-73
2021/10/09 18:36:35;;;;;;;64.92;31.45;;;;;;;5.01;45.47;101314.40;1724605;82;21027;-77
2021/10/09 18:39:01;;;;;;;42.50;20.97;;;;;;;4.95;45.99;101317.89;1733116;82;21069;-76
2021/10/09 18:41:28;;;;;;;35.80;20.65;;;;;;;4.90;46.35;101317.64;1731115;83;21031;-78
2021/10/09 18:43:54;;;;;;;56.10;35.60;;;;;;;4.85;46.24;101316.87;1731213;83;21014;-76
2021/10/09 18:46:21;;;;;;;54.98;30.88;;;;;;;4.81;46.72;101315.63;1720558;82;21020;-77
2021/10/09 18:48:48;;;;;;;38.25;24.18;;;;;;;4.78;47.61;101312.48;1709307;83;21055;-76
2021/10/09 18:51:14;;;;;;;42.35;26.97;;;;;;;4.71;47.98;101312.40;1694583;82;21628;-74
2021/10/09 18:53:41;;;;;;;99.52;59.13;;;;;;;4.65;48.42;101317.75;1718583;82;21561;-75
2021/10/09 18:56:07;;;;;;;78.05;48.78;;;;;;;4.54;48.55;101304.27;1701792;83;21027;-75
2021/10/09 18:58:34;;;;;;;32.93;18.37;;;;;;;4.48;48.77;101308.59;1714817;83;21079;-75
2021/10/09 19:01:00;;;;;;;23.60;12.93;;;;;;;4.44;49.28;101310.52;1717357;81;21063;-76
2021/10/09 19:03:27;;;;;;;24.07;13.13;;;;;;;4.37;49.59;101311.81;1724749;83;21547;-78
2021/10/09 19:05:53;;;;;;;26.45;13.20;;;;;;;4.31;50.03;101317.98;1728417;81;21027;-76
2021/10/09 19:08:21;;;;;;;21.68;12.00;;;;;;;4.25;50.30;101314.69;1711628;83;21070;-74
2021/10/09 19:10:48;;;;;;;35.43;17.00;;;;;;;4.21;50.37;101317.47;1732493;81;21109;-78
2021/10/09 19:13:16;;;;;;;104.40;48.30;;;;;;;4.15;50.73;101320.91;1717086;82;21892;-79
2021/10/09 19:15:43;;;;;;;32.42;17.02;;;;;;;4.12;50.78;101315.91;1732944;83;21150;-75
2021/10/09 19:18:10;;;;;;;28.10;15.70;;;;;;;4.04;51.03;101307.94;1729551;82;21598;-74
2021/10/09 19:20:37;;;;;;;28.62;15.13;;;;;;;3.99;50.76;101312.58;1732265;82;21049;-68
2021/10/09 19:23:03;;;;;;;23.50;13.05;;;;;;;4.00;50.71;101312.06;1732044;82;21050;-72
2021/10/09 19:25:31;;;;;;;27.02;12.33;;;;;;;3.97;50.44;101311.91;1729035;83;21052;-69
2021/10/09 19:27:58;;;;;;;22.15;12.25;;;;;;;3.96;50.66;101311.61;1701771;83;21462;-71
2021/10/09 19:30:24;;;;;;;26.70;12.63;;;;;;;3.95;50.90;101313.98;1737959;81;21083;-71
2021/10/09 19:32:54;;;;;;;24.47;13.18;;;;;;;3.92;51.07;101313.02;1711178;83;21010;-72
2021/10/09 19:35:40;;;;;;;26.73;14.10;;;;;;;3.89;51.68;101311.21;1716984;83;21537;-71
2021/10/09 19:38:07;;;;;;;28.45;13.28;;;;;;;3.81;52.14;101307.28;1727109;82;21053;-71
2021/10/09 19:40:34;;;;;;;28.62;15.03;;;;;;;3.75;52.11;101308.88;1732693;81;21103;-71
2021/10/09 19:43:03;;;;;;;27.70;13.62;;;;;;;3.71;52.29;101308.94;1731758;83;21061;-71
2021/10/09 19:45:33;;;;;;;29.37;14.38;;;;;;;3.67;52.29;101309.48;1728867;83;21583;-71
2021/10/09 19:48:02;;;;;;;29.95;13.83;;;;;;;3.66;52.38;101310.00;1734160;83;21055;-71
2021/10/09 19:50:30;;;;;;;29.82;14.38;;;;;;;3.61;52.53;101304.87;1732335;81;21014;-71
2021/10/09 19:52:57;;;;;;;35.83;16.05;;;;;;;3.60;52.85;101312.61;1726397;82;20943;-71
2021/10/09 19:55:25;;;;;;;33.70;14.60;;;;;;;3.54;53.33;101312.03;1704258;83;21629;-71
2021/10/09 19:57:52;;;;;;;29.02;14.65;;;;;;;3.47;53.44;101314.64;1719004;83;21429;-72
2021/10/09 20:00:18;;;;;;;25.80;13.90;;;;;;;3.42;53.58;101312.50;1707444;82;21087;-71
2021/10/09 20:02:44;;;;;;;31.80;15.75;;;;;;;3.37;53.79;101316.25;1701866;84;21533;-72
2021/10/09 20:05:18;;;;;;;28.45;13.95;;;;;;;3.35;53.60;101311.58;1718407;81;21110;-73
2021/10/09 20:07:43;;;;;;;28.92;15.00;;;;;;;3.33;53.74;101310.11;1733601;82;21526;-72
2021/10/09 20:10:14;;;;;;;29.60;14.13;;;;;;;3.32;53.52;101312.46;1732310;82;21134;-72
2021/10/09 20:12:43;;;;;;;34.23;16.25;;;;;;;3.34;53.76;101309.90;1715312;82;21491;-72
2021/10/09 20:15:11;;;;;;;26.52;13.53;;;;;;;3.33;53.93;101310.11;1715859;82;21095;-69
2021/10/09 20:17:40;;;;;;;29.40;14.63;;;;;;;3.30;54.32;101308.59;1733247;83;21376;-72
2021/10/09 20:20:12;;;;;;;32.33;16.23;;;;;;;3.27;54.40;101309.48;1730835;81;21054;-69
2021/10/09 20:22:41;;;;;;;34.45;16.57;;;;;;;3.25;54.60;101309.69;1733367;83;21002;-71
2021/10/09 20:25:08;;;;;;;34.13;16.87;;;;;;;3.21;54.95;101307.03;1743126;81;21614;-70
2021/10/09 20:27:35;;;;;;;30.55;16.82;;;;;;;3.17;55.52;101307.58;1739433;82;20994;-70
2021/10/09 20:30:03;;;;;;;36.73;17.70;;;;;;;3.13;55.93;101304.94;1743708;82;21102;-70
2021/10/09 20:32:30;;;;;;;35.17;18.02;;;;;;;3.04;56.48;101303.38;1743948;82;21042;-70
2021/10/09 20:34:56;;;;;;;33.85;17.02;;;;;;;3.01;56.76;101310.77;1743722;82;21587;-70
2021/10/09 20:37:23;;;;;;;34.18;17.85;;;;;;;2.95;56.94;101310.67;1743830;82;21037;-70
2021/10/09 20:39:49;;;;;;;31.62;17.37;;;;;;;2.90;57.07;101310.41;1744175;81;21592;-70
2021/10/09 20:42:15;;;;;;;33.33;16.95;;;;;;;2.85;57.25;101307.42;1744074;82;21121;-70
2021/10/09 20:44:42;;;;;;;31.95;17.42;;;;;;;2.81;57.55;101314.19;1743788;82;21592;-70